KWJF/WJF METAR and TAF weather

Enter ICAO airport designator
Station Type Date Time Source
KWJF METAR 2022/11/26 09:56 UTC NOAA

KWJF 260956Z AUTO 00000KT 10SM CLR 01/M11 A3020 RMK AO2 SLP229 T00061106


Station Type Date Time Source
KWJF Decoded METAR 2022/11/26 09:56 UTC NOAA

LANCASTER FOX AIRFIELD, CA, United States (KWJF) 34-44N 118-13W
Nov 26, 2022 - 04:56 AM EST / 2022.11.26 0956 UTC
Wind: Calm:0
Visibility: 10 mile(s):0
Sky conditions: clear
Temperature: 33.1 F (0.6 C)
Dew Point: 12.9 F (-10.6 C)
Relative Humidity: 42%
Pressure (altimeter): 30.2 in. Hg (1022 hPa)
ob: KWJF 260956Z AUTO 00000KT 10SM CLR 01/M11 A3020 RMK AO2 SLP229 T00061106
cycle: 10

Station Type Date Time Source
KWJF TAF 2022/11/26 06:33 UTC NOAA

TAF KWJF 260531Z 2606/2706 VRB05KT P6SM SKC
FM261800 27010KT P6SM SCT250

Example: see airport list